Time;durP1;ratioP1;P1;durP2;ratioP2;P2;SDS_P1;SDS_P2;PMS_P1;PMS_P2;Temp;Humidity;BMP_temperature;BMP_pressure;BME280_temperature;BME280_humidity;BME280_pressure;Samples;Min_cycle;Max_cycle;Signal;HPM_P1;HPM_P2
2022/01/24 00:00:00;;;;;;;104.97;14.80;;;;;;;;;;4977234;28;20184;-50
2022/01/24 00:02:28;;;;;;;77.47;11.30;;;;;;;;;;4981211;28;20181;-49
2022/01/24 00:04:54;;;;;;;75.70;11.00;;;;;;;;;;4973728;28;20202;-50
2022/01/24 00:07:22;;;;;;;48.73;7.37;;;;;;;;;;4984427;28;20673;-49
2022/01/24 00:09:51;;;;;;;51.90;7.87;;;;;;;;;;4987111;28;20259;-49
2022/01/24 00:12:24;;;;;;;70.27;10.30;;;;;;;;;;4982565;28;20189;-49
2022/01/24 00:15:01;;;;;;;49.17;7.37;;;;;;;;;;4986576;28;20772;-49
2022/01/24 00:17:42;;;;;;;51.17;7.70;;;;;;;;;;4981188;28;20638;-49
2022/01/24 00:28:05;;;;;;;51.60;7.57;;;;;;;;;;4983161;28;20219;-50
2022/01/24 00:30:31;;;;;;;56.17;8.50;;;;;;;;;;4983817;28;20637;-49
2022/01/24 00:32:57;;;;;;;60.07;8.83;;;;;;;;;;4982444;28;20670;-49
2022/01/24 00:35:23;;;;;;;55.73;8.37;;;;;;;;;;4982244;28;20209;-49
2022/01/24 00:37:49;;;;;;;73.30;10.53;;;;;;;;;;4983116;28;20217;-49
2022/01/24 00:40:15;;;;;;;98.83;18.47;;;;;;;;;;5007906;22;20304;-47
2022/01/24 00:42:55;;;;;;;50.20;10.43;;;;;;;;;;5006163;28;20205;-47
2022/01/24 00:45:37;;;;;;;78.90;15.50;;;;;;;;;;5009731;28;20176;-47
2022/01/24 00:56:05;;;;;;;84.07;15.70;;;;;;;;;;5004583;28;20275;-47
2022/01/24 00:58:31;;;;;;;92.87;17.87;;;;;;;;;;5005722;28;20223;-47
2022/01/24 01:00:57;;;;;;;82.73;16.10;;;;;;;;;;5015872;28;20212;-47
2022/01/24 01:03:24;;;;;;;112.80;20.27;;;;;;;;;;5011827;28;20387;-47
2022/01/24 01:19:06;;;;;;;75.17;14.73;;;;;;;;;;5010539;28;20315;-47
2022/01/24 01:21:32;;;;;;;73.00;14.53;;;;;;;;;;5000635;28;20301;-47
2022/01/24 01:23:59;;;;;;;55.33;12.60;;;;;;;;;;5007493;28;20407;-47
2022/01/24 01:26:39;;;;;;;99.37;18.30;;;;;;;;;;5010781;28;20640;-47
2022/01/24 01:29:11;;;;;;;93.43;17.07;;;;;;;;;;5005342;28;20473;-47
2022/01/24 01:31:50;;;;;;;140.47;24.40;;;;;;;;;;5011013;28;20276;-47
2022/01/24 01:34:55;;;;;;;95.57;17.73;;;;;;;;;;5002805;28;20272;-47
2022/01/24 01:40:41;;;;;;;96.70;18.10;;;;;;;;;;5009047;28;20254;-47
2022/01/24 01:54:29;;;;;;;70.57;13.93;;;;;;;;;;5006808;28;20220;-48
2022/01/24 01:56:55;;;;;;;101.20;19.23;;;;;;;;;;5001114;28;20180;-48
2022/01/24 01:59:21;;;;;;;99.93;18.93;;;;;;;;;;5001534;28;20603;-48
2022/01/24 02:01:47;;;;;;;79.13;15.80;;;;;;;;;;5003604;28;20274;-48
2022/01/24 02:04:14;;;;;;;77.07;14.60;;;;;;;;;;5004158;28;20624;-48
2022/01/24 02:06:40;;;;;;;115.07;21.33;;;;;;;;;;5011659;28;20280;-48
2022/01/24 02:09:11;;;;;;;92.33;17.83;;;;;;;;;;5007054;28;20304;-49
2022/01/24 02:11:37;;;;;;;113.17;20.47;;;;;;;;;;5001721;28;20768;-48
2022/01/24 02:14:08;;;;;;;108.87;19.33;;;;;;;;;;5007928;28;20288;-48
2022/01/24 02:16:52;;;;;;;112.67;20.57;;;;;;;;;;5006043;28;20266;-48
2022/01/24 02:19:36;;;;;;;87.37;17.10;;;;;;;;;;5002406;28;20297;-49
2022/01/24 02:24:40;;;;;;;113.50;21.03;;;;;;;;;;5006364;28;20585;-48
2022/01/24 02:27:07;;;;;;;120.83;20.90;;;;;;;;;;5000516;28;20253;-48
2022/01/24 02:32:08;;;;;;;121.17;22.27;;;;;;;;;;5002322;28;20227;-48
2022/01/24 02:34:38;;;;;;;95.80;17.53;;;;;;;;;;5006291;28;20625;-48
2022/01/24 02:37:07;;;;;;;81.23;15.77;;;;;;;;;;5010898;28;20679;-48
2022/01/24 02:50:28;;;;;;;134.97;24.13;;;;;;;;;;5005924;28;20191;-48
2022/01/24 02:52:54;;;;;;;64.23;14.27;;;;;;;;;;5008747;28;20203;-48
2022/01/24 02:55:20;;;;;;;102.57;19.73;;;;;;;;;;5003567;28;20342;-48
2022/01/24 02:57:46;;;;;;;66.53;13.70;;;;;;;;;;5008582;28;20204;-48
2022/01/24 03:00:13;;;;;;;83.00;16.43;;;;;;;;;;5007908;28;20203;-48
2022/01/24 03:02:39;;;;;;;122.47;22.03;;;;;;;;;;5006142;28;20180;-48
2022/01/24 03:05:05;;;;;;;69.57;14.47;;;;;;;;;;5004691;28;20189;-48
2022/01/24 03:07:32;;;;;;;47.40;11.60;;;;;;;;;;5014335;28;20230;-48
2022/01/24 03:10:00;;;;;;;103.87;19.07;;;;;;;;;;5007079;28;20629;-48
2022/01/24 03:12:41;;;;;;;37.90;10.40;;;;;;;;;;5007014;28;20235;-48
2022/01/24 03:15:08;;;;;;;73.50;14.97;;;;;;;;;;5009919;28;20207;-48
2022/01/24 03:17:33;;;;;;;90.77;17.37;;;;;;;;;;5006771;28;20707;-48
2022/01/24 03:19:59;;;;;;;84.70;16.93;;;;;;;;;;4999502;28;20308;-48
2022/01/24 03:22:25;;;;;;;70.37;14.47;;;;;;;;;;5010311;28;20284;-48
2022/01/24 03:24:51;;;;;;;66.40;13.23;;;;;;;;;;5007498;28;20326;-48
2022/01/24 03:27:17;;;;;;;67.00;14.10;;;;;;;;;;5005266;28;20228;-48
2022/01/24 03:29:43;;;;;;;63.47;13.63;;;;;;;;;;5009958;28;20314;-48
2022/01/24 03:32:09;;;;;;;70.80;15.27;;;;;;;;;;5009185;28;20278;-48
2022/01/24 03:34:35;;;;;;;69.13;14.50;;;;;;;;;;5003538;28;20201;-48
2022/01/24 03:37:01;;;;;;;72.50;15.10;;;;;;;;;;5011288;28;20333;-48
2022/01/24 03:39:27;;;;;;;68.93;13.90;;;;;;;;;;5006256;28;20238;-48
2022/01/24 03:41:53;;;;;;;94.63;18.03;;;;;;;;;;4999976;28;20606;-48
2022/01/24 03:44:19;;;;;;;63.03;14.10;;;;;;;;;;5011297;28;20284;-48
2022/01/24 03:52:08;;;;;;;48.33;12.03;;;;;;;;;;5002589;28;20309;-48
2022/01/24 03:54:35;;;;;;;53.80;11.70;;;;;;;;;;5006843;28;20204;-48
2022/01/24 03:57:01;;;;;;;71.40;14.83;;;;;;;;;;4998791;28;20720;-48
2022/01/24 03:59:27;;;;;;;124.33;22.63;;;;;;;;;;5010677;28;20246;-48
2022/01/24 04:01:52;;;;;;;35.43;9.63;;;;;;;;;;5006900;28;20236;-48
2022/01/24 04:04:18;;;;;;;75.27;15.73;;;;;;;;;;5016307;28;20208;-48
2022/01/24 04:06:44;;;;;;;76.77;14.80;;;;;;;;;;5012453;28;20188;-48
2022/01/24 04:09:10;;;;;;;121.10;21.07;;;;;;;;;;5002920;28;20212;-48
2022/01/24 04:11:39;;;;;;;66.87;13.33;;;;;;;;;;5002093;28;20775;-48
2022/01/24 04:14:29;;;;;;;41.20;10.43;;;;;;;;;;5010952;28;20450;-48
2022/01/24 04:22:16;;;;;;;81.30;15.37;;;;;;;;;;5002031;28;20211;-48
2022/01/24 04:24:43;;;;;;;74.10;15.57;;;;;;;;;;5008899;28;22618;-48
2022/01/24 04:27:09;;;;;;;60.87;12.50;;;;;;;;;;5001329;28;20189;-48
2022/01/24 04:29:36;;;;;;;54.03;12.50;;;;;;;;;;5010569;28;20224;-48
2022/01/24 04:32:02;;;;;;;89.93;17.63;;;;;;;;;;5006108;28;20658;-48
2022/01/24 04:34:28;;;;;;;56.00;12.57;;;;;;;;;;5009473;28;20219;-48
2022/01/24 04:36:54;;;;;;;46.83;11.30;;;;;;;;;;5004568;28;20552;-48
2022/01/24 04:39:20;;;;;;;55.53;12.97;;;;;;;;;;5008352;28;20196;-48
2022/01/24 04:41:49;;;;;;;83.07;17.17;;;;;;;;;;5000966;28;20192;-48
2022/01/24 04:47:20;;;;;;;79.33;16.33;;;;;;;;;;4998819;28;20591;-48
2022/01/24 04:54:56;;;;;;;111.13;20.77;;;;;;;;;;5007128;28;20180;-48
2022/01/24 04:57:25;;;;;;;86.70;16.97;;;;;;;;;;5005023;28;20946;-48
2022/01/24 04:59:51;;;;;;;54.40;11.80;;;;;;;;;;5006110;28;20487;-48
2022/01/24 05:02:18;;;;;;;92.13;17.83;;;;;;;;;;5002586;28;20250;-48
2022/01/24 05:04:44;;;;;;;70.90;13.83;;;;;;;;;;5004107;28;20540;-48
2022/01/24 05:07:10;;;;;;;62.57;12.90;;;;;;;;;;5012300;28;20177;-48
2022/01/24 05:09:42;;;;;;;66.37;13.37;;;;;;;;;;5004507;28;20315;-48
2022/01/24 05:12:17;;;;;;;88.23;16.03;;;;;;;;;;5002654;28;20511;-48
2022/01/24 05:25:57;;;;;;;37.43;10.17;;;;;;;;;;4999601;28;20371;-48
2022/01/24 05:28:24;;;;;;;67.80;13.60;;;;;;;;;;5008700;28;20307;-48
2022/01/24 05:30:50;;;;;;;52.13;12.33;;;;;;;;;;5001121;28;20187;-48
2022/01/24 05:33:16;;;;;;;74.27;15.27;;;;;;;;;;5009171;28;20204;-48
2022/01/24 05:35:42;;;;;;;90.13;17.43;;;;;;;;;;4999030;28;20610;-49
2022/01/24 05:38:10;;;;;;;113.70;20.77;;;;;;;;;;5003355;28;20192;-48
2022/01/24 05:40:36;;;;;;;110.13;20.50;;;;;;;;;;5000747;28;20267;-48
2022/01/24 05:43:02;;;;;;;74.77;14.73;;;;;;;;;;5007908;28;20277;-48
2022/01/24 05:45:28;;;;;;;47.30;10.83;;;;;;;;;;5006035;28;20223;-48
2022/01/24 05:47:54;;;;;;;37.77;9.30;;;;;;;;;;5008722;28;20286;-48
2022/01/24 05:50:20;;;;;;;109.77;19.13;;;;;;;;;;5001804;28;20196;-48
2022/01/24 05:52:46;;;;;;;87.67;16.47;;;;;;;;;;5002490;28;20556;-48
2022/01/24 05:55:12;;;;;;;122.07;21.60;;;;;;;;;;5004055;28;20489;-48
2022/01/24 05:57:38;;;;;;;66.10;14.70;;;;;;;;;;5007181;28;20188;-48
2022/01/24 06:00:13;;;;;;;83.20;16.77;;;;;;;;;;5001594;28;20694;-48
2022/01/24 06:02:40;;;;;;;86.73;17.27;;;;;;;;;;5004011;28;20241;-48
2022/01/24 06:05:06;;;;;;;88.07;17.17;;;;;;;;;;5008165;28;20921;-48
2022/01/24 06:07:32;;;;;;;80.70;15.80;;;;;;;;;;5013485;28;20200;-48
2022/01/24 06:09:58;;;;;;;108.10;19.17;;;;;;;;;;5004100;28;20288;-48
2022/01/24 06:12:25;;;;;;;72.80;14.43;;;;;;;;;;5007660;28;20624;-48
2022/01/24 06:14:51;;;;;;;87.57;15.83;;;;;;;;;;5005244;28;21272;-48
2022/01/24 06:17:17;;;;;;;48.57;10.50;;;;;;;;;;5007533;28;20268;-48
2022/01/24 06:19:43;;;;;;;88.53;17.00;;;;;;;;;;5002259;28;20903;-48
2022/01/24 06:22:09;;;;;;;64.53;13.23;;;;;;;;;;5009712;28;20196;-48
2022/01/24 06:24:35;;;;;;;82.33;15.60;;;;;;;;;;5006859;28;20208;-48
2022/01/24 06:27:01;;;;;;;84.27;17.00;;;;;;;;;;5008049;28;20276;-48
2022/01/24 06:29:27;;;;;;;76.37;15.73;;;;;;;;;;5013218;28;20587;-48
2022/01/24 06:31:53;;;;;;;79.30;15.83;;;;;;;;;;5008794;28;20524;-48
2022/01/24 06:34:19;;;;;;;52.17;11.93;;;;;;;;;;5006308;28;20204;-48
2022/01/24 06:36:45;;;;;;;55.27;12.60;;;;;;;;;;5008439;28;20499;-48
2022/01/24 06:39:13;;;;;;;175.17;29.30;;;;;;;;;;5004995;28;20203;-48
2022/01/24 06:41:41;;;;;;;82.37;11.27;;;;;;;;;;5007676;22;20230;-47
2022/01/24 06:44:07;;;;;;;110.73;14.83;;;;;;;;;;4999752;28;20235;-50
2022/01/24 06:46:33;;;;;;;156.63;20.63;;;;;;;;;;4996100;28;20209;-50
2022/01/24 06:48:59;;;;;;;109.60;14.77;;;;;;;;;;4988244;28;20837;-50
2022/01/24 06:51:25;;;;;;;114.33;15.33;;;;;;;;;;4986062;28;20185;-50
2022/01/24 06:53:51;;;;;;;118.37;15.73;;;;;;;;;;4987991;28;20616;-50
2022/01/24 06:56:17;;;;;;;87.77;11.77;;;;;;;;;;4991999;28;20185;-49
2022/01/24 06:58:43;;;;;;;88.43;11.73;;;;;;;;;;4998725;28;20211;-50
2022/01/24 07:01:09;;;;;;;87.90;11.87;;;;;;;;;;4993357;28;20569;-50
2022/01/24 07:03:36;;;;;;;92.27;12.53;;;;;;;;;;5000648;28;20238;-49
2022/01/24 07:06:02;;;;;;;91.80;12.17;;;;;;;;;;4997067;28;20569;-50
2022/01/24 07:08:28;;;;;;;113.33;15.13;;;;;;;;;;4995866;28;20205;-50
2022/01/24 07:10:54;;;;;;;105.30;14.20;;;;;;;;;;4994001;28;21175;-49
2022/01/24 07:13:21;;;;;;;134.30;17.60;;;;;;;;;;4964592;28;20521;-50
2022/01/24 07:15:51;;;;;;;166.53;21.50;;;;;;;;;;4980479;28;20196;-49
2022/01/24 07:18:57;;;;;;;104.67;13.90;;;;;;;;;;4988282;28;20186;-49
2022/01/24 07:21:05;;;;;;;251.63;33.50;;;;;;;;;;4973145;28;20348;-49
2022/01/24 07:23:30;;;;;;;133.40;17.50;;;;;;;;;;4980443;28;20247;-48
2022/01/24 07:25:56;;;;;;;130.90;17.20;;;;;;;;;;4986262;28;20276;-50
2022/01/24 07:28:23;;;;;;;560.87;80.13;;;;;;;;;;4970315;28;20399;-50
2022/01/24 07:30:49;;;;;;;255.70;33.43;;;;;;;;;;4964222;28;20208;-49
2022/01/24 07:33:15;;;;;;;352.40;48.23;;;;;;;;;;4972277;28;20351;-49
2022/01/24 07:35:41;;;;;;;157.17;20.13;;;;;;;;;;4980952;28;20181;-49
2022/01/24 07:38:08;;;;;;;105.73;14.60;;;;;;;;;;4996655;28;20212;-50
2022/01/24 07:40:41;;;;;;;157.43;20.63;;;;;;;;;;4981257;28;20228;-50
2022/01/24 07:43:13;;;;;;;131.00;17.00;;;;;;;;;;4991152;28;20259;-49
2022/01/24 07:45:40;;;;;;;143.53;18.47;;;;;;;;;;4988993;28;20781;-49
2022/01/24 07:48:06;;;;;;;161.80;22.17;;;;;;;;;;4985112;28;20199;-49
2022/01/24 07:50:32;;;;;;;121.07;15.93;;;;;;;;;;4981138;28;20312;-49
2022/01/24 07:53:01;;;;;;;237.93;31.87;;;;;;;;;;4964310;28;20208;-50
2022/01/24 07:55:27;;;;;;;240.23;31.43;;;;;;;;;;4951491;28;20193;-49
2022/01/24 07:57:53;;;;;;;241.30;31.43;;;;;;;;;;4986410;28;20192;-49
2022/01/24 08:00:19;;;;;;;462.20;66.13;;;;;;;;;;4956853;28;20184;-49
2022/01/24 08:02:45;;;;;;;243.70;31.80;;;;;;;;;;4957715;28;21752;-49
2022/01/24 08:05:11;;;;;;;135.17;17.90;;;;;;;;;;4957022;28;20677;-49
2022/01/24 08:07:38;;;;;;;208.17;28.17;;;;;;;;;;4965597;28;20209;-50
2022/01/24 08:10:04;;;;;;;193.97;25.07;;;;;;;;;;4977593;28;20593;-49
2022/01/24 08:12:31;;;;;;;155.77;20.80;;;;;;;;;;5008234;28;20185;-49
2022/01/24 08:14:59;;;;;;;176.57;24.23;;;;;;;;;;4970781;28;20185;-49
2022/01/24 08:17:25;;;;;;;211.33;27.33;;;;;;;;;;4968246;28;20321;-49
2022/01/24 08:19:51;;;;;;;279.93;36.50;;;;;;;;;;4969208;28;20213;-50
2022/01/24 08:22:18;;;;;;;266.33;35.43;;;;;;;;;;4964859;28;20227;-49
2022/01/24 08:24:44;;;;;;;330.43;45.47;;;;;;;;;;4966771;28;20208;-49
2022/01/24 08:27:10;;;;;;;266.53;35.33;;;;;;;;;;4963262;28;21197;-49
2022/01/24 08:29:36;;;;;;;78.47;10.73;;;;;;;;;;4993355;28;20223;-49
2022/01/24 08:32:02;;;;;;;290.27;39.17;;;;;;;;;;4969375;28;22660;-50
2022/01/24 08:34:28;;;;;;;146.67;18.90;;;;;;;;;;4963140;28;21190;-50
2022/01/24 08:36:54;;;;;;;330.03;44.47;;;;;;;;;;4960406;28;20288;-50
2022/01/24 08:39:20;;;;;;;123.80;16.40;;;;;;;;;;4980855;28;20196;-49
2022/01/24 08:45:40;;;;;;;197.93;26.07;;;;;;;;;;4971927;28;20212;-50
2022/01/24 08:47:07;;;;;;;259.17;33.93;;;;;;;;;;4961834;28;21866;-49
2022/01/24 08:49:33;;;;;;;83.67;11.37;;;;;;;;;;4977853;28;20225;-47
2022/01/24 08:52:00;;;;;;;105.50;13.93;;;;;;;;;;5009512;28;20541;-47
2022/01/24 08:54:26;;;;;;;72.80;10.00;;;;;;;;;;5010182;28;20418;-47
2022/01/24 08:56:52;;;;;;;70.90;10.07;;;;;;;;;;5009769;28;20553;-47
2022/01/24 08:59:18;;;;;;;63.37;8.93;;;;;;;;;;5008902;28;20188;-47
2022/01/24 09:01:46;;;;;;;71.33;9.70;;;;;;;;;;5009289;28;20173;-48
2022/01/24 09:04:12;;;;;;;49.83;7.13;;;;;;;;;;5009810;28;20204;-48
2022/01/24 09:06:38;;;;;;;59.60;8.30;;;;;;;;;;5009239;28;20179;-47
2022/01/24 09:09:05;;;;;;;76.10;10.43;;;;;;;;;;5009974;28;20236;-48
2022/01/24 09:11:32;;;;;;;72.50;9.83;;;;;;;;;;5009072;28;20207;-47
2022/01/24 09:13:58;;;;;;;83.97;11.37;;;;;;;;;;5008999;28;20585;-47
2022/01/24 09:16:24;;;;;;;63.67;8.73;;;;;;;;;;5009321;28;20204;-47
2022/01/24 09:18:50;;;;;;;76.50;10.57;;;;;;;;;;5008843;28;20271;-47
2022/01/24 09:21:17;;;;;;;82.73;11.23;;;;;;;;;;5009332;28;20185;-47
2022/01/24 09:23:43;;;;;;;88.13;12.00;;;;;;;;;;5008881;28;20223;-47
2022/01/24 09:26:09;;;;;;;80.77;11.13;;;;;;;;;;5009551;28;20177;-47
2022/01/24 09:28:35;;;;;;;89.70;12.20;;;;;;;;;;5009081;28;20630;-47
2022/01/24 09:31:01;;;;;;;67.77;9.23;;;;;;;;;;5008843;28;20255;-47
2022/01/24 09:33:27;;;;;;;47.93;6.93;;;;;;;;;;5009132;28;20689;-47
2022/01/24 09:35:55;;;;;;;67.37;9.13;;;;;;;;;;5009181;28;20180;-47
2022/01/24 09:38:23;;;;;;;77.40;10.60;;;;;;;;;;5008950;28;20185;-47
2022/01/24 09:40:49;;;;;;;57.20;8.20;;;;;;;;;;5008824;28;20593;-47
2022/01/24 09:43:15;;;;;;;70.57;9.77;;;;;;;;;;5008479;28;20200;-48
2022/01/24 09:45:41;;;;;;;75.00;10.30;;;;;;;;;;5008862;28;20173;-47
2022/01/24 09:48:08;;;;;;;97.13;12.97;;;;;;;;;;5008902;28;20184;-47
2022/01/24 09:50:35;;;;;;;71.80;10.07;;;;;;;;;;5009142;28;20201;-47
2022/01/24 09:53:01;;;;;;;82.30;11.67;;;;;;;;;;5008653;28;20248;-47
2022/01/24 09:55:27;;;;;;;71.93;10.13;;;;;;;;;;5008293;28;20177;-47
2022/01/24 09:57:54;;;;;;;82.10;11.43;;;;;;;;;;5008005;28;20622;-47
2022/01/24 10:00:21;;;;;;;75.07;10.27;;;;;;;;;;5008618;28;20180;-47
2022/01/24 10:02:49;;;;;;;75.07;10.23;;;;;;;;;;5007941;28;20687;-47
2022/01/24 10:05:18;;;;;;;75.77;10.43;;;;;;;;;;5008226;28;20184;-47
2022/01/24 10:07:58;;;;;;;80.67;11.03;;;;;;;;;;5023015;28;20518;-47
2022/01/24 10:10:27;;;;;;;70.27;9.80;;;;;;;;;;5009185;28;20204;-47
2022/01/24 10:18:04;;;;;;;141.90;19.57;;;;;;;;;;4992330;28;20255;-53
2022/01/24 10:20:33;;;;;;;132.37;17.97;;;;;;;;;;4989039;28;20181;-53
2022/01/24 10:23:04;;;;;;;148.93;19.97;;;;;;;;;;4978134;28;20585;-53
2022/01/24 10:25:31;;;;;;;329.40;44.33;;;;;;;;;;4970082;28;20198;-54
2022/01/24 10:28:02;;;;;;;190.07;25.27;;;;;;;;;;4983630;28;20212;-52
2022/01/24 10:30:28;;;;;;;207.60;27.60;;;;;;;;;;4980195;28;20214;-54
2022/01/24 10:32:55;;;;;;;122.30;16.83;;;;;;;;;;4993109;28;20208;-53
2022/01/24 10:35:46;;;;;;;141.17;19.23;;;;;;;;;;4993331;28;20196;-52
2022/01/24 10:38:16;;;;;;;120.07;16.33;;;;;;;;;;4987234;28;20316;-53
2022/01/24 10:40:50;;;;;;;164.57;22.27;;;;;;;;;;4980024;28;20244;-53
2022/01/24 10:43:20;;;;;;;134.47;18.37;;;;;;;;;;4987855;28;20256;-54
2022/01/24 10:45:47;;;;;;;104.53;14.73;;;;;;;;;;5002655;28;20192;-53
2022/01/24 10:48:14;;;;;;;81.13;11.40;;;;;;;;;;4990680;28;20193;-52
2022/01/24 10:50:40;;;;;;;131.67;18.30;;;;;;;;;;4997395;28;20268;-53
2022/01/24 10:53:10;;;;;;;145.90;19.87;;;;;;;;;;4997783;28;20240;-52
2022/01/24 10:55:36;;;;;;;148.27;20.37;;;;;;;;;;5000116;28;20233;-52
2022/01/24 10:58:05;;;;;;;96.50;13.53;;;;;;;;;;5004797;28;20185;-54
2022/01/24 11:00:31;;;;;;;130.63;18.23;;;;;;;;;;4991950;28;20185;-53
2022/01/24 11:03:02;;;;;;;99.10;13.97;;;;;;;;;;5004446;28;20224;-51
2022/01/24 11:05:35;;;;;;;112.10;15.63;;;;;;;;;;5004688;28;20211;-52
2022/01/24 11:08:02;;;;;;;95.80;13.90;;;;;;;;;;5002829;28;20545;-52
2022/01/24 11:10:30;;;;;;;177.67;24.63;;;;;;;;;;4997290;28;20608;-53
2022/01/24 11:12:56;;;;;;;91.90;13.23;;;;;;;;;;5000173;28;20296;-52
2022/01/24 11:15:23;;;;;;;107.03;15.50;;;;;;;;;;5000871;28;20199;-54
2022/01/24 11:17:50;;;;;;;181.97;26.23;;;;;;;;;;4972984;28;20200;-53
2022/01/24 11:20:18;;;;;;;152.67;21.47;;;;;;;;;;4978174;28;20189;-52
2022/01/24 11:22:45;;;;;;;301.70;42.50;;;;;;;;;;4985954;28;20204;-54
2022/01/24 11:25:13;;;;;;;183.43;25.87;;;;;;;;;;4992217;28;20193;-52
2022/01/24 11:27:40;;;;;;;167.73;23.47;;;;;;;;;;4987908;28;20193;-51
2022/01/24 11:30:08;;;;;;;196.20;26.43;;;;;;;;;;4994588;28;20213;-51
2022/01/24 11:32:38;;;;;;;221.53;30.73;;;;;;;;;;4989663;28;20188;-52
2022/01/24 11:35:05;;;;;;;170.23;23.37;;;;;;;;;;4989044;28;20177;-51
2022/01/24 11:37:33;;;;;;;139.20;19.17;;;;;;;;;;4996363;28;20286;-50
2022/01/24 11:39:59;;;;;;;169.43;23.40;;;;;;;;;;4985240;28;20245;-51
2022/01/24 11:42:30;;;;;;;97.50;13.73;;;;;;;;;;4987855;28;20639;-51
2022/01/24 11:44:59;;;;;;;226.40;31.53;;;;;;;;;;4992248;28;20201;-50
2022/01/24 11:47:27;;;;;;;199.67;27.33;;;;;;;;;;4981120;28;20207;-51
2022/01/24 11:49:54;;;;;;;176.50;24.23;;;;;;;;;;4985187;28;20262;-51
2022/01/24 11:52:20;;;;;;;100.20;14.27;;;;;;;;;;4991445;28;20192;-51
2022/01/24 11:55:03;;;;;;;117.90;16.43;;;;;;;;;;4993503;28;20219;-51
2022/01/24 11:57:39;;;;;;;142.20;19.87;;;;;;;;;;4990680;28;20188;-50
2022/01/24 12:00:05;;;;;;;157.30;22.17;;;;;;;;;;4993501;28;20530;-52
2022/01/24 12:02:41;;;;;;;129.37;18.10;;;;;;;;;;4997971;28;20557;-53
2022/01/24 12:05:10;;;;;;;194.40;26.40;;;;;;;;;;4989028;28;20199;-54
2022/01/24 12:07:47;;;;;;;115.37;16.03;;;;;;;;;;4998088;28;20649;-52
2022/01/24 12:10:26;;;;;;;200.03;27.07;;;;;;;;;;4990728;28;20324;-53
2022/01/24 12:13:02;;;;;;;168.03;23.93;;;;;;;;;;4992373;28;20208;-52
2022/01/24 12:15:37;;;;;;;118.80;16.27;;;;;;;;;;4992529;28;20177;-53
2022/01/24 12:18:03;;;;;;;181.17;25.57;;;;;;;;;;4985923;28;20183;-53
2022/01/24 12:20:33;;;;;;;110.70;15.07;;;;;;;;;;4980220;28;20456;-53
2022/01/24 12:23:00;;;;;;;160.23;21.57;;;;;;;;;;4993419;28;20213;-52
2022/01/24 12:25:45;;;;;;;147.67;20.37;;;;;;;;;;4987989;28;20267;-53
2022/01/24 12:28:18;;;;;;;191.00;25.37;;;;;;;;;;4993681;28;20732;-52
2022/01/24 12:31:00;;;;;;;135.50;18.77;;;;;;;;;;4984932;28;20192;-54
2022/01/24 12:33:45;;;;;;;158.40;21.27;;;;;;;;;;4990029;28;20213;-53
2022/01/24 12:36:13;;;;;;;107.00;14.90;;;;;;;;;;4988395;28;20193;-52
2022/01/24 12:39:05;;;;;;;134.10;18.27;;;;;;;;;;4987852;28;20697;-53
2022/01/24 12:41:37;;;;;;;76.43;15.30;;;;;;;;;;5033225;22;20306;-45
2022/01/24 12:46:30;;;;;;;70.10;14.70;;;;;;;;;;5025436;28;20511;-46
2022/01/24 12:48:57;;;;;;;43.93;10.30;;;;;;;;;;5024132;28;20295;-45
2022/01/24 12:51:29;;;;;;;45.03;10.93;;;;;;;;;;5027444;28;20578;-45
2022/01/24 12:53:56;;;;;;;70.60;14.30;;;;;;;;;;5025301;28;20283;-45
2022/01/24 12:56:26;;;;;;;49.87;11.50;;;;;;;;;;5023233;28;20231;-45
2022/01/24 12:58:52;;;;;;;51.57;11.27;;;;;;;;;;5025477;28;20210;-45
2022/01/24 13:01:23;;;;;;;55.23;12.60;;;;;;;;;;5024879;28;20568;-45
2022/01/24 13:03:56;;;;;;;55.20;11.17;;;;;;;;;;5026120;28;20200;-45
2022/01/24 13:06:22;;;;;;;47.60;10.87;;;;;;;;;;5025185;28;20184;-45
2022/01/24 13:09:12;;;;;;;50.37;10.87;;;;;;;;;;5025538;28;20714;-45
2022/01/24 13:11:47;;;;;;;55.03;12.00;;;;;;;;;;5017418;28;20222;-45
2022/01/24 13:14:24;;;;;;;81.03;15.53;;;;;;;;;;5024753;28;20195;-45
2022/01/24 13:22:43;;;;;;;44.17;10.47;;;;;;;;;;5026540;28;20310;-45
2022/01/24 13:25:11;;;;;;;64.23;13.47;;;;;;;;;;5023723;28;20581;-45
2022/01/24 13:27:38;;;;;;;61.93;12.97;;;;;;;;;;5024920;28;20184;-45
2022/01/24 13:30:05;;;;;;;37.57;9.63;;;;;;;;;;5026411;28;20367;-45
2022/01/24 13:32:43;;;;;;;58.10;12.03;;;;;;;;;;5026207;28;20183;-45
2022/01/24 13:35:35;;;;;;;20.87;7.03;;;;;;;;;;5026904;28;20271;-45
2022/01/24 13:38:01;;;;;;;49.10;11.47;;;;;;;;;;5023867;28;20207;-45
2022/01/24 13:40:31;;;;;;;36.97;9.87;;;;;;;;;;5024436;28;20196;-46
2022/01/24 13:42:58;;;;;;;47.67;11.17;;;;;;;;;;5026850;28;20261;-45
2022/01/24 13:45:24;;;;;;;86.20;16.60;;;;;;;;;;5025977;28;20266;-45
2022/01/24 13:47:57;;;;;;;40.30;9.73;;;;;;;;;;5025824;28;20556;-45
2022/01/24 13:50:23;;;;;;;49.20;11.37;;;;;;;;;;5025004;28;20720;-45
2022/01/24 13:52:49;;;;;;;40.17;10.30;;;;;;;;;;5024736;28;20282;-45
2022/01/24 13:55:16;;;;;;;43.63;9.80;;;;;;;;;;5026461;28;20176;-45
2022/01/24 13:57:47;;;;;;;46.97;11.40;;;;;;;;;;5025750;28;20181;-45
2022/01/24 14:00:15;;;;;;;52.17;12.30;;;;;;;;;;5026036;28;20190;-45
2022/01/24 14:02:41;;;;;;;66.20;13.53;;;;;;;;;;5024598;28;20229;-45
2022/01/24 14:05:09;;;;;;;53.60;11.30;;;;;;;;;;5023802;28;20184;-45
2022/01/24 14:07:41;;;;;;;28.17;8.63;;;;;;;;;;5024845;28;20223;-45
2022/01/24 14:10:09;;;;;;;50.03;11.17;;;;;;;;;;5023976;28;20731;-45
2022/01/24 14:12:57;;;;;;;34.97;9.10;;;;;;;;;;5025479;28;20188;-45
2022/01/24 14:18:25;;;;;;;41.23;10.00;;;;;;;;;;5024539;28;20267;-45
2022/01/24 14:20:55;;;;;;;72.83;14.80;;;;;;;;;;5024531;28;20188;-45
2022/01/24 14:23:34;;;;;;;42.60;10.73;;;;;;;;;;5023975;28;20257;-45
2022/01/24 14:26:12;;;;;;;76.90;14.60;;;;;;;;;;5026009;28;20542;-45
2022/01/24 14:28:38;;;;;;;49.47;10.67;;;;;;;;;;5028707;28;20219;-45
2022/01/24 14:31:11;;;;;;;43.70;10.00;;;;;;;;;;5029482;28;20207;-45
2022/01/24 14:33:37;;;;;;;55.90;12.40;;;;;;;;;;5030141;28;20242;-45
2022/01/24 14:36:05;;;;;;;59.13;12.10;;;;;;;;;;5028688;28;20251;-45
2022/01/24 14:38:45;;;;;;;37.63;9.53;;;;;;;;;;5029050;28;20175;-45
2022/01/24 14:41:14;;;;;;;64.97;13.70;;;;;;;;;;5027554;28;20227;-45
2022/01/24 14:46:27;;;;;;;46.50;11.00;;;;;;;;;;5029155;28;20172;-45
2022/01/24 14:48:55;;;;;;;59.57;13.03;;;;;;;;;;5027629;28;20216;-45
2022/01/24 14:51:28;;;;;;;44.93;10.37;;;;;;;;;;5028660;28;20299;-45
2022/01/24 14:53:55;;;;;;;47.70;10.43;;;;;;;;;;5029186;28;20257;-45
2022/01/24 14:56:21;;;;;;;74.50;15.13;;;;;;;;;;5028310;28;20528;-45
2022/01/24 14:58:47;;;;;;;48.13;11.43;;;;;;;;;;5029559;28;20186;-45
2022/01/24 15:01:13;;;;;;;53.20;12.10;;;;;;;;;;5026881;28;20269;-45
2022/01/24 15:03:41;;;;;;;46.20;11.13;;;;;;;;;;5027659;28;20251;-45
2022/01/24 15:06:07;;;;;;;61.40;12.93;;;;;;;;;;5029522;28;20184;-45
2022/01/24 15:08:33;;;;;;;41.27;9.07;;;;;;;;;;5028717;28;20196;-45
2022/01/24 15:11:00;;;;;;;47.07;9.90;;;;;;;;;;5028377;28;20489;-46
2022/01/24 15:13:33;;;;;;;48.67;11.60;;;;;;;;;;5027627;28;20200;-45
2022/01/24 15:16:12;;;;;;;47.50;11.17;;;;;;;;;;5027640;28;20192;-45
2022/01/24 15:26:52;;;;;;;76.47;15.20;;;;;;;;;;5026021;28;20275;-45
2022/01/24 15:29:18;;;;;;;59.83;12.07;;;;;;;;;;5026866;28;20296;-45
2022/01/24 15:31:48;;;;;;;63.73;13.53;;;;;;;;;;5026271;28;20555;-45
2022/01/24 15:34:15;;;;;;;42.07;9.50;;;;;;;;;;5026722;28;20286;-45
2022/01/24 15:36:41;;;;;;;51.83;11.97;;;;;;;;;;5026603;28;20180;-45
2022/01/24 15:39:08;;;;;;;42.40;10.27;;;;;;;;;;5027889;28;20568;-45
2022/01/24 15:41:43;;;;;;;52.07;11.40;;;;;;;;;;5027103;28;20224;-45
2022/01/24 15:44:32;;;;;;;46.73;10.83;;;;;;;;;;5027638;28;20291;-45
2022/01/24 15:47:00;;;;;;;24.70;8.13;;;;;;;;;;5028350;28;20272;-45
2022/01/24 15:49:26;;;;;;;58.53;12.13;;;;;;;;;;5027459;28;20557;-45
2022/01/24 15:51:53;;;;;;;41.93;10.30;;;;;;;;;;5025662;28;20179;-46
2022/01/24 15:54:22;;;;;;;75.87;15.50;;;;;;;;;;5027466;28;20248;-46
2022/01/24 15:59:33;;;;;;;38.07;10.47;;;;;;;;;;5028405;28;20179;-46
2022/01/24 16:01:59;;;;;;;49.53;12.27;;;;;;;;;;5028420;28;20267;-46
2022/01/24 16:04:25;;;;;;;37.80;10.33;;;;;;;;;;5027088;28;20286;-46
2022/01/24 16:06:51;;;;;;;53.23;13.00;;;;;;;;;;5026326;28;20192;-46
2022/01/24 16:09:17;;;;;;;42.90;10.97;;;;;;;;;;5028516;28;20248;-46
2022/01/24 16:11:43;;;;;;;45.37;11.30;;;;;;;;;;5027747;28;20228;-46
2022/01/24 16:14:09;;;;;;;54.60;13.10;;;;;;;;;;5028141;28;20241;-46
2022/01/24 16:16:37;;;;;;;42.40;11.40;;;;;;;;;;5028006;28;20232;-46
2022/01/24 16:19:04;;;;;;;55.43;13.53;;;;;;;;;;5027509;28;20233;-46
2022/01/24 16:21:40;;;;;;;48.67;12.37;;;;;;;;;;5028043;28;20180;-46
2022/01/24 16:26:39;;;;;;;42.23;10.13;;;;;;;;;;5028612;28;20176;-46